Time;durP1;ratioP1;P1;durP2;ratioP2;P2;SDS_P1;SDS_P2;PMS_P1;PMS_P2;Temp;Humidity;BMP_temperature;BMP_pressure;BME280_temperature;BME280_humidity;BME280_pressure;Samples;Min_cycle;Max_cycle;Signal;HPM_P1;HPM_P2
2021/09/22 00:01:11;;;;;;;;;39.00;33.00;;;;;15.03;62.79;102171.53;5086156;28;45576;-80
2021/09/22 00:03:37;;;;;;;;;40.33;33.33;;;;;15.06;62.70;102168.94;5086631;27;45563;-80
2021/09/22 00:06:02;;;;;;;;;37.00;34.33;;;;;15.07;62.68;102168.03;5084490;28;45620;-79
2021/09/22 00:08:28;;;;;;;;;38.00;35.00;;;;;15.05;62.87;102175.16;5084696;28;45467;-80
2021/09/22 00:10:53;;;;;;;;;36.67;35.00;;;;;15.00;62.41;102165.25;5085290;28;45368;-80
2021/09/22 00:13:18;;;;;;;;;35.67;34.33;;;;;14.97;62.86;102167.00;5086880;27;44950;-80
2021/09/22 00:15:44;;;;;;;;;37.33;34.00;;;;;14.99;62.67;102171.50;5084801;28;45701;-80
2021/09/22 00:18:09;;;;;;;;;45.00;36.00;;;;;14.91;63.20;102162.41;5085628;28;44799;-80
2021/09/22 00:20:35;;;;;;;;;37.33;32.67;;;;;14.91;63.31;102167.78;5085136;28;44827;-80
2021/09/22 00:23:00;;;;;;;;;36.00;34.67;;;;;14.89;63.25;102164.16;5084442;28;46761;-80
2021/09/22 00:25:28;;;;;;;;;34.33;32.33;;;;;14.88;63.30;102166.81;5087386;27;45430;-80
2021/09/22 00:27:54;;;;;;;;;41.67;36.00;;;;;14.88;63.32;102165.03;5085666;27;45500;-79
2021/09/22 00:30:20;;;;;;;;;40.00;34.00;;;;;14.86;63.65;102169.44;5086485;27;45447;-80
2021/09/22 00:32:46;;;;;;;;;39.33;33.33;;;;;14.86;63.52;102174.81;5084730;28;46606;-80
2021/09/22 00:35:12;;;;;;;;;35.33;32.67;;;;;14.81;63.48;102173.84;5086308;28;45363;-80
2021/09/22 00:37:38;;;;;;;;;43.00;36.00;;;;;14.76;63.64;102157.66;5081152;28;44768;-77
2021/09/22 00:40:11;;;;;;;;;35.67;33.00;;;;;14.78;63.69;102150.59;5084025;27;45608;-80
2021/09/22 00:42:37;;;;;;;;;37.33;33.00;;;;;14.77;63.38;102153.22;5084483;28;47226;-80
2021/09/22 00:45:06;;;;;;;;;36.00;33.67;;;;;14.71;63.78;102137.03;5084504;28;45413;-80
2021/09/22 00:47:31;;;;;;;;;32.67;32.00;;;;;14.68;63.53;102142.31;5085401;28;44827;-80
2021/09/22 00:49:57;;;;;;;;;39.33;35.00;;;;;14.67;63.75;102157.50;5096136;27;44854;-80
2021/09/22 00:52:23;;;;;;;;;39.33;34.67;;;;;14.62;64.12;102147.56;5106123;27;45896;-80
2021/09/22 00:54:50;;;;;;;;;37.00;33.67;;;;;14.60;63.82;102147.50;5086883;27;45522;-80
2021/09/22 00:57:17;;;;;;;;;39.67;35.00;;;;;14.59;64.10;102145.72;5105384;27;45486;-80
2021/09/22 00:59:43;;;;;;;;;46.33;36.67;;;;;14.58;64.04;102146.59;5105538;27;45535;-80
2021/09/22 01:02:09;;;;;;;;;35.67;34.00;;;;;14.57;64.24;102145.69;5085136;27;48296;-78
2021/09/22 01:04:35;;;;;;;;;44.00;36.33;;;;;14.56;64.22;102142.97;5070118;27;45478;-79
2021/09/22 01:07:03;;;;;;;;;40.33;35.33;;;;;14.52;64.15;102141.06;5086714;27;45804;-79
2021/09/22 01:09:30;;;;;;;;;36.00;32.50;;;;;14.55;64.01;102147.41;5105529;27;45443;-79
2021/09/22 01:11:56;;;;;;;;;37.67;35.00;;;;;14.47;64.12;102126.72;5072289;27;47122;-79
2021/09/22 01:14:23;;;;;;;;;40.00;33.33;;;;;14.52;64.31;102139.31;5087148;27;45366;-79
2021/09/22 01:16:50;;;;;;;;;43.00;38.67;;;;;14.51;64.37;102145.53;5088763;27;45421;-79
2021/09/22 01:19:15;;;;;;;;;39.33;34.33;;;;;14.50;64.19;102138.38;5088871;27;45610;-79
2021/09/22 01:21:46;;;;;;;;;33.33;32.00;;;;;14.48;64.45;102134.78;5107988;27;46127;-79
2021/09/22 01:24:12;;;;;;;;;35.33;33.00;;;;;14.50;64.23;102140.13;5088079;27;45425;-79
2021/09/22 01:26:38;;;;;;;;;37.33;31.67;;;;;14.43;64.56;102125.72;5085424;27;45449;-79
2021/09/22 01:29:04;;;;;;;;;40.67;34.00;;;;;14.46;64.21;102128.50;5086037;27;44891;-79
2021/09/22 01:31:29;;;;;;;;;39.33;34.00;;;;;14.38;64.40;102122.97;5086922;27;46647;-79
2021/09/22 01:34:00;;;;;;;;;38.33;35.67;;;;;14.40;64.14;102134.63;5104764;27;45408;-79
2021/09/22 01:36:25;;;;;;;;;40.00;34.00;;;;;14.37;64.33;102125.63;5086386;27;45436;-79
2021/09/22 01:38:50;;;;;;;;;34.67;31.33;;;;;14.37;64.31;102130.97;5104490;27;44783;-79
2021/09/22 01:41:16;;;;;;;;;39.67;34.33;;;;;14.36;64.38;102129.13;5085570;27;48111;-79
2021/09/22 01:43:43;;;;;;;;;33.67;32.67;;;;;14.31;64.49;102112.09;5103818;27;45461;-79
2021/09/22 01:46:11;;;;;;;;;41.33;35.67;;;;;14.36;64.42;102132.75;5104582;27;45420;-79
2021/09/22 01:48:36;;;;;;;;;33.67;27.67;;;;;14.33;64.19;102129.09;5087536;27;45452;-80
2021/09/22 01:51:03;;;;;;;;;40.33;37.00;;;;;14.26;64.13;102124.47;5082515;28;47929;-80
2021/09/22 01:53:29;;;;;;;;;41.33;34.67;;;;;14.21;64.69;102130.63;5085141;28;45473;-80
2021/09/22 01:55:56;;;;;;;;;41.67;36.67;;;;;14.20;64.99;102126.16;5084306;28;45840;-80
2021/09/22 01:58:25;;;;;;;;;44.00;37.00;;;;;14.17;64.74;102123.41;5082822;28;45460;-80
2021/09/22 02:00:51;;;;;;;;;36.00;32.00;;;;;14.16;64.77;102129.66;5082772;28;48135;-80
2021/09/22 02:03:16;;;;;;;;;29.00;26.67;;;;;14.14;64.86;102127.81;5081846;28;44843;-80
2021/09/22 02:05:46;;;;;;;;;30.67;28.33;;;;;14.09;65.26;102117.00;5084092;28;45824;-79
2021/09/22 02:08:12;;;;;;;;;34.00;30.67;;;;;14.14;64.93;102123.34;5084614;27;45445;-80
2021/09/22 02:14:00;;;;;;;;;47.33;36.33;;;;;14.05;65.25;102122.25;5083422;28;45907;-79
2021/09/22 02:16:26;;;;;;;;;35.00;33.00;;;;;14.03;64.84;102116.84;5081720;28;45459;-80
2021/09/22 02:18:51;;;;;;;;;34.00;32.67;;;;;14.02;65.56;102109.72;5083200;27;45578;-80
2021/09/22 02:21:17;;;;;;;;;37.00;34.00;;;;;13.97;65.31;102098.00;5083924;27;45431;-80
2021/09/22 02:23:42;;;;;;;;;39.33;33.67;;;;;14.03;64.90;102103.47;5083749;28;44831;-79
2021/09/22 02:26:07;;;;;;;;;37.67;33.67;;;;;14.03;65.30;102100.81;5083134;28;45381;-80
2021/09/22 02:28:33;;;;;;;;;37.00;33.00;;;;;14.01;65.45;102099.88;5081927;27;45340;-80
2021/09/22 02:30:59;;;;;;;;;33.67;30.67;;;;;13.98;64.95;102081.09;5081227;28;47001;-80
2021/09/22 02:33:25;;;;;;;;;41.00;35.00;;;;;13.98;65.17;102084.66;5082744;28;45428;-80
2021/09/22 02:35:51;;;;;;;;;46.00;38.00;;;;;13.93;64.48;102067.59;5083131;28;45500;-80
2021/09/22 02:38:17;;;;;;;;;39.00;35.33;;;;;13.97;64.96;102077.50;5084049;28;44905;-79
2021/09/22 02:40:43;;;;;;;;;43.33;36.00;;;;;13.97;65.12;102071.25;5083962;28;47212;-80
2021/09/22 02:43:08;;;;;;;;;43.33;36.67;;;;;13.95;65.03;102063.19;5083868;28;45443;-80
2021/09/22 02:45:35;;;;;;;;;39.00;36.00;;;;;13.98;65.09;102067.72;5081930;28;45447;-79
2021/09/22 02:48:00;;;;;;;;;40.67;36.33;;;;;13.96;64.93;102074.81;5084679;27;45367;-79
2021/09/22 02:50:26;;;;;;;;;41.00;37.00;;;;;13.91;65.15;102063.09;5082749;28;47964;-80
2021/09/22 02:52:51;;;;;;;;;43.67;37.00;;;;;13.92;64.99;102068.50;5083710;28;45366;-80
2021/09/22 02:55:17;;;;;;;;;37.67;34.33;;;;;13.92;65.15;102063.16;5083686;28;45415;-80
2021/09/22 02:57:43;;;;;;;;;43.67;37.33;;;;;13.90;65.42;102058.63;5083833;28;45751;-79
2021/09/22 03:00:10;;;;;;;;;39.67;33.33;;;;;13.87;65.23;102047.88;5085891;27;45966;-79
2021/09/22 03:02:37;;;;;;;;;44.00;36.67;;;;;13.91;65.05;102044.38;5086982;28;45399;-79
2021/09/22 03:05:04;;;;;;;;;40.67;36.00;;;;;13.88;65.37;102053.25;5073208;28;45509;-79
2021/09/22 03:07:30;;;;;;;;;37.33;33.67;;;;;13.84;65.66;102037.13;5090282;28;45522;-79
2021/09/22 03:09:55;;;;;;;;;38.00;35.00;;;;;13.87;65.45;102045.19;5091372;28;45416;-79
2021/09/22 03:12:20;;;;;;;;;40.33;36.33;;;;;13.86;65.70;102046.97;5090838;27;45417;-79
2021/09/22 03:14:46;;;;;;;;;40.67;36.00;;;;;13.75;65.77;102029.78;5090512;28;45353;-79
2021/09/22 03:17:11;;;;;;;;;42.33;36.00;;;;;13.79;65.61;102040.59;5091003;28;45301;-79
2021/09/22 03:19:36;;;;;;;;;39.00;35.33;;;;;13.75;65.65;102044.03;5091270;28;46632;-79
2021/09/22 03:22:03;;;;;;;;;44.67;35.67;;;;;13.77;65.64;102041.41;5092333;28;45699;-79
2021/09/22 03:24:30;;;;;;;;;38.33;35.67;;;;;13.80;65.75;102046.84;5088866;28;45361;-79
2021/09/22 03:26:55;;;;;;;;;37.00;35.00;;;;;13.82;65.79;102041.53;5087857;28;45594;-80
2021/09/22 03:29:21;;;;;;;;;45.00;34.33;;;;;13.77;65.81;102034.28;5085931;28;47034;-79
2021/09/22 03:31:46;;;;;;;;;32.67;31.33;;;;;13.75;65.60;102033.34;5087823;28;45513;-80
2021/09/22 03:34:13;;;;;;;;;44.33;37.00;;;;;13.78;65.77;102049.47;5087067;27;45914;-80
2021/09/22 03:36:45;;;;;;;;;42.00;36.00;;;;;13.76;65.82;102043.19;5087512;27;45527;-79
2021/09/22 03:39:11;;;;;;;;;36.67;31.00;;;;;13.73;65.68;102040.44;5086205;28;48488;-80
2021/09/22 03:41:36;;;;;;;;;42.67;35.33;;;;;13.70;65.72;102040.38;5086606;28;45459;-80
2021/09/22 03:44:02;;;;;;;;;40.67;34.33;;;;;13.71;65.47;102043.94;5087292;28;45522;-80
2021/09/22 03:46:29;;;;;;;;;35.33;32.67;;;;;13.69;65.85;102046.56;5087454;28;45760;-80
2021/09/22 03:48:54;;;;;;;;;41.00;36.00;;;;;13.66;65.80;102043.84;5087722;27;47137;-80
2021/09/22 03:51:19;;;;;;;;;37.67;35.00;;;;;13.65;65.58;102050.06;5087972;27;45500;-80
2021/09/22 03:53:45;;;;;;;;;42.67;35.67;;;;;13.56;65.82;102031.16;5088100;27;45615;-79
2021/09/22 03:56:10;;;;;;;;;44.33;36.00;;;;;13.59;65.79;102036.56;5086364;27;45677;-79
2021/09/22 03:58:36;;;;;;;;;37.67;35.00;;;;;13.53;65.59;102036.41;5088257;27;45181;-80
2021/09/22 04:01:01;;;;;;;;;37.67;34.67;;;;;13.54;65.93;102054.28;5084571;28;45280;-80
2021/09/22 04:03:27;;;;;;;;;41.00;33.67;;;;;13.42;65.88;102044.19;5087939;27;45688;-80
2021/09/22 04:05:52;;;;;;;;;39.33;33.33;;;;;13.42;65.93;102059.34;5086431;28;44889;-80
2021/09/22 04:08:18;;;;;;;;;40.67;36.00;;;;;13.39;65.84;102054.78;5088105;27;46601;-79
2021/09/22 04:10:43;;;;;;;;;39.67;36.00;;;;;13.39;65.81;102060.13;5086716;28;45323;-79
2021/09/22 04:13:08;;;;;;;;;36.00;34.00;;;;;13.37;66.08;102069.88;5084563;27;45330;-79
2021/09/22 04:15:34;;;;;;;;;38.00;33.00;;;;;13.34;65.85;102067.16;5083739;28;45416;-79
2021/09/22 04:18:00;;;;;;;;;37.00;34.33;;;;;13.35;66.41;102072.56;5084836;28;47223;-80
2021/09/22 04:20:25;;;;;;;;;42.00;35.67;;;;;13.30;66.37;102071.53;5084170;28;45326;-80
2021/09/22 04:22:50;;;;;;;;;40.00;36.00;;;;;13.30;66.50;102065.28;5086002;27;45648;-80
2021/09/22 04:25:17;;;;;;;;;41.00;36.00;;;;;13.32;66.36;102063.56;5085629;28;45527;-80
2021/09/22 04:27:42;;;;;;;;;38.00;35.00;;;;;13.32;66.32;102069.78;5087580;27;47095;-80
2021/09/22 04:30:09;;;;;;;;;43.00;37.33;;;;;13.24;66.40;102057.97;5086598;27;44891;-79
2021/09/22 04:32:35;;;;;;;;;42.67;36.00;;;;;13.26;66.45;102069.63;5087673;28;45753;-79
2021/09/22 04:38:23;;;;;;;;;37.67;33.67;;;;;13.24;66.56;102066.00;5086965;28;45784;-80
2021/09/22 04:40:49;;;;;;;;;34.33;30.00;;;;;13.24;66.55;102059.75;5086508;27;45535;-80
2021/09/22 04:43:14;;;;;;;;;42.33;36.00;;;;;13.24;66.41;102060.66;5087340;27;45765;-80
2021/09/22 04:45:39;;;;;;;;;42.00;33.67;;;;;13.24;66.55;102060.66;5086447;27;45242;-80
2021/09/22 04:48:06;;;;;;;;;43.33;37.33;;;;;13.21;66.45;102052.59;5088503;27;45865;-80
2021/09/22 04:50:32;;;;;;;;;43.33;34.67;;;;;13.17;66.83;102056.06;5098177;27;45738;-80
2021/09/22 04:52:57;;;;;;;;;44.00;37.67;;;;;13.18;66.38;102057.84;5087376;27;45531;-79
2021/09/22 04:55:23;;;;;;;;;43.00;35.33;;;;;13.16;66.53;102055.13;5105649;27;45422;-80
2021/09/22 04:57:48;;;;;;;;;42.00;35.00;;;;;13.13;66.65;102062.19;5103553;27;46002;-80
2021/09/22 05:03:36;;;;;;;;;43.33;37.00;;;;;13.09;66.28;102065.59;5102015;27;45587;-80
2021/09/22 05:06:01;;;;;;;;;41.67;36.00;;;;;13.09;66.63;102069.22;5084170;27;45598;-80
2021/09/22 05:08:27;;;;;;;;;37.00;34.67;;;;;13.08;66.87;102071.84;5103288;27;45306;-80
2021/09/22 05:10:54;;;;;;;;;37.00;33.67;;;;;13.06;66.76;102066.44;5102902;27;45490;-79
2021/09/22 05:13:20;;;;;;;;;41.33;36.00;;;;;13.02;66.56;102056.56;5086418;27;45804;-80
2021/09/22 05:15:46;;;;;;;;;49.33;40.33;;;;;13.00;66.79;102067.19;5104150;27;45497;-80
2021/09/22 05:18:11;;;;;;;;;40.67;36.33;;;;;13.01;66.97;102069.00;5105138;27;45378;-80
2021/09/22 05:20:37;;;;;;;;;43.00;35.67;;;;;12.95;66.96;102058.16;5086804;27;45440;-80
2021/09/22 05:23:03;;;;;;;;;41.33;36.00;;;;;12.98;66.73;102068.03;5104193;27;45426;-79
2021/09/22 05:25:29;;;;;;;;;41.00;37.67;;;;;12.99;66.73;102069.84;5104861;27;45513;-79
2021/09/22 05:27:54;;;;;;;;;38.00;35.67;;;;;12.96;67.16;102059.97;5086732;27;46930;-80
2021/09/22 05:30:20;;;;;;;;;41.33;36.00;;;;;13.04;66.94;102075.28;5086625;27;45392;-80
2021/09/22 05:32:45;;;;;;;;;41.33;36.00;;;;;13.01;67.06;102074.34;5085918;27;45480;-79
2021/09/22 05:35:11;;;;;;;;;43.00;36.67;;;;;13.03;67.02;102055.69;5086756;27;45440;-80
2021/09/22 05:37:36;;;;;;;;;46.67;36.00;;;;;13.09;66.94;102070.94;5105067;27;45400;-80
2021/09/22 05:40:04;;;;;;;;;42.00;36.00;;;;;12.95;66.51;102036.81;5104870;27;45721;-79
2021/09/22 05:42:30;;;;;;;;;48.25;39.50;;;;;13.09;66.57;102065.59;5085960;27;45466;-79
2021/09/22 05:44:56;;;;;;;;;42.00;36.33;;;;;13.14;66.84;102075.56;5084715;27;45404;-80
2021/09/22 05:47:22;;;;;;;;;44.00;35.67;;;;;13.15;66.76;102065.78;5103899;27;45498;-79
2021/09/22 05:49:47;;;;;;;;;44.33;37.33;;;;;13.17;66.57;102069.41;5101531;27;45431;-79
2021/09/22 05:52:13;;;;;;;;;41.33;37.33;;;;;13.14;66.90;102062.19;5103009;27;45871;-79
2021/09/22 05:54:38;;;;;;;;;38.67;34.67;;;;;13.17;66.59;102078.31;5085019;27;45019;-79
2021/09/22 05:57:05;;;;;;;;;40.33;36.33;;;;;13.21;66.57;102076.63;5084485;27;45460;-80
2021/09/22 05:59:30;;;;;;;;;45.25;36.50;;;;;13.22;66.74;102083.75;5084451;27;45459;-80
2021/09/22 06:01:57;;;;;;;;;43.67;37.00;;;;;13.26;66.45;102085.63;5085740;27;45364;-81
2021/09/22 06:04:23;;;;;;;;;41.67;37.00;;;;;13.26;66.69;102088.31;5086594;27;45629;-81
2021/09/22 06:06:49;;;;;;;;;40.33;34.33;;;;;13.29;66.78;102082.13;5085130;27;47016;-81
2021/09/22 06:09:16;;;;;;;;;36.33;35.33;;;;;13.36;66.63;102086.81;5086449;27;45385;-82
2021/09/22 06:11:47;;;;;;;;;41.67;36.33;;;;;13.38;66.27;102080.63;5086336;27;44893;-81
2021/09/22 06:14:13;;;;;;;;;38.33;35.00;;;;;13.40;66.26;102084.25;5084894;27;45778;-80
2021/09/22 06:16:38;;;;;;;;;41.33;36.00;;;;;13.42;66.38;102080.72;5103414;27;45416;-80
2021/09/22 06:19:06;;;;;;;;;46.33;36.67;;;;;13.50;65.89;102084.47;5105605;27;45623;-82
2021/09/22 06:21:32;;;;;;;;;44.67;37.00;;;;;13.56;66.44;102085.50;5106205;27;45514;-81
2021/09/22 06:23:58;;;;;;;;;44.33;37.33;;;;;13.58;65.97;102082.88;5106231;27;45375;-80
2021/09/22 06:26:25;;;;;;;;;37.00;34.33;;;;;13.56;65.98;102081.94;5104705;27;45521;-81
2021/09/22 06:28:51;;;;;;;;;40.67;36.33;;;;;13.61;66.09;102088.28;5086166;27;45524;-81
2021/09/22 06:31:17;;;;;;;;;42.00;36.67;;;;;13.64;65.93;102088.38;5086577;27;45401;-81
2021/09/22 06:33:43;;;;;;;;;42.00;36.00;;;;;13.79;65.81;102096.75;5105137;27;44938;-80
2021/09/22 06:36:08;;;;;;;;;47.00;38.00;;;;;13.87;65.71;102099.56;5054038;27;47934;-80
2021/09/22 06:38:34;;;;;;;;;47.00;36.67;;;;;13.95;65.58;102094.41;5086887;27;45414;-80
2021/09/22 06:40:59;;;;;;;;;38.67;36.00;;;;;14.05;65.05;102096.41;5087582;27;45342;-80
2021/09/22 06:43:25;;;;;;;;;46.33;37.00;;;;;14.12;64.93;102100.13;5088181;27;45441;-80
2021/09/22 06:45:50;;;;;;;;;39.67;36.00;;;;;14.16;64.78;102097.53;5104567;27;45512;-80
2021/09/22 06:48:23;;;;;;;;;45.67;38.00;;;;;14.18;64.87;102087.78;5088170;27;45499;-80
2021/09/22 06:50:56;;;;;;;;;40.00;36.00;;;;;14.25;64.49;102087.91;5083962;28;45373;-80
2021/09/22 06:53:21;;;;;;;;;44.67;36.33;;;;;14.33;64.58;102094.31;5088445;28;44885;-81
2021/09/22 06:55:47;;;;;;;;;41.00;36.33;;;;;14.37;64.44;102085.47;5088919;28;46676;-80
2021/09/22 06:58:12;;;;;;;;;40.67;36.00;;;;;14.49;64.13;102099.09;5083338;27;45455;-80
2021/09/22 07:00:38;;;;;;;;;46.00;37.00;;;;;14.52;64.04;102091.13;5068532;28;45484;-80
2021/09/22 07:03:09;;;;;;;;;44.67;36.00;;;;;14.62;64.01;102099.34;5068976;28;45427;-80
2021/09/22 07:05:35;;;;;;;;;43.67;37.00;;;;;14.64;63.75;102097.59;5068485;28;47778;-80
2021/09/22 07:11:27;;;;;;;;;43.33;37.67;;;;;14.70;63.07;102105.75;5075798;28;44776;-82
2021/09/22 07:13:52;;;;;;;;;42.00;37.33;;;;;14.71;63.07;102088.84;5054867;28;45499;-81
2021/09/22 07:16:18;;;;;;;;;42.00;36.33;;;;;14.77;63.06;102107.69;5087070;28;46597;-82
2021/09/22 07:18:44;;;;;;;;;40.00;37.00;;;;;14.84;63.31;102106.91;5091059;28;44787;-82
2021/09/22 07:21:14;;;;;;;;;41.67;37.00;;;;;14.90;63.02;102098.09;5084019;28;45413;-82
2021/09/22 07:24:17;;;;;;;;;42.33;36.67;;;;;14.99;62.79;102107.22;5087000;28;45416;-82
2021/09/22 07:26:42;;;;;;;;;46.00;37.33;;;;;15.02;62.86;102105.47;5071598;28;48041;-81
2021/09/22 07:29:08;;;;;;;;;38.00;35.00;;;;;15.10;62.65;102106.50;5082108;28;44803;-81
2021/09/22 07:31:35;;;;;;;;;48.00;40.00;;;;;15.17;62.52;102113.78;5076328;28;45389;-81
2021/09/22 07:34:01;;;;;;;;;51.75;41.00;;;;;15.13;61.95;102112.81;5086573;27;44966;-80
2021/09/22 07:37:17;;;;;;;;;48.67;40.00;;;;;15.16;62.05;102114.63;5064817;28;46759;-81
2021/09/22 07:39:42;;;;;;;;;43.00;35.67;;;;;15.16;61.95;102114.63;5066145;28;45338;-81
2021/09/22 07:42:12;;;;;;;;;51.00;42.00;;;;;15.08;62.00;102116.28;5065455;28;45417;-82
2021/09/22 07:44:42;;;;;;;;;40.00;36.00;;;;;15.16;62.05;102131.59;5066418;28;45374;-81
2021/09/22 07:47:10;;;;;;;;;45.00;39.25;;;;;15.26;61.94;102124.63;5079772;28;46706;-82
2021/09/22 07:49:43;;;;;;;;;49.33;39.00;;;;;15.39;61.69;102129.34;5087363;27;45531;-81
2021/09/22 07:52:10;;;;;;;;;45.33;36.00;;;;;15.42;61.51;102122.22;5090998;27;45464;-81
2021/09/22 07:54:37;;;;;;;;;51.00;42.00;;;;;15.42;61.25;102130.25;5090364;27;45668;-80
2021/09/22 07:57:03;;;;;;;;;40.33;35.67;;;;;15.53;61.46;102125.94;5090745;27;45439;-83
2021/09/22 07:59:30;;;;;;;;;41.00;35.33;;;;;15.64;60.75;102113.63;5092623;27;45481;-81
2021/09/22 08:01:57;;;;;;;;;44.33;38.33;;;;;15.73;60.59;102119.16;5111682;27;45402;-81
2021/09/22 08:04:25;;;;;;;;;40.67;35.33;;;;;15.72;60.48;102112.00;5094276;27;44812;-81
2021/09/22 08:06:51;;;;;;;;;49.33;40.00;;;;;15.66;60.58;102114.56;5112324;27;45369;-80
2021/09/22 08:09:20;;;;;;;;;44.33;36.33;;;;;15.73;60.59;102118.25;5093205;27;45838;-80
2021/09/22 08:11:47;;;;;;;;;37.67;34.33;;;;;15.82;60.88;102113.03;5093571;27;45475;-81
2021/09/22 08:14:18;;;;;;;;;49.67;38.00;;;;;15.92;60.51;102120.34;5111353;27;45696;-81
2021/09/22 08:16:49;;;;;;;;;50.00;40.00;;;;;16.03;59.72;102117.78;5110596;27;45456;-81
2021/09/22 08:19:18;;;;;;;;;47.67;41.33;;;;;16.11;60.03;102118.78;5110053;27;45730;-81
2021/09/22 08:21:46;;;;;;;;;46.50;39.00;;;;;16.20;59.53;102126.09;5111347;27;44934;-80
2021/09/22 08:24:12;;;;;;;;;44.33;37.67;;;;;16.10;59.70;102111.63;5092722;27;45651;-82
2021/09/22 08:27:00;;;;;;;;;49.00;38.25;;;;;16.20;59.63;102124.28;5112052;27;46625;-82
2021/09/22 08:29:39;;;;;;;;;48.67;40.00;;;;;16.05;59.66;102094.56;5010130;28;45441;-82
2021/09/22 08:32:16;;;;;;;;;;;;;;;;;;;;;
2021/09/22 08:34:46;;;;;;;;;48.33;40.33;;;;;16.37;59.12;102128.97;5028847;28;65224;-82
2021/09/22 08:37:12;;;;;;;;;46.00;38.00;;;;;16.46;59.22;102129.09;5010881;28;45481;-82
2021/09/22 08:39:38;;;;;;;;;51.50;40.25;;;;;16.45;59.10;102110.28;5009290;28;45421;-81
2021/09/22 08:42:07;;;;;;;;;49.67;39.00;;;;;16.58;59.25;102117.56;4996661;28;45476;-81
2021/09/22 08:44:35;;;;;;;;;54.00;41.75;;;;;16.65;58.73;102110.50;4991823;28;45475;-81
2021/09/22 08:47:03;;;;;;;;;43.00;37.33;;;;;16.70;58.20;102108.75;4989570;28;47067;-80
2021/09/22 08:49:32;;;;;;;;;43.00;38.00;;;;;16.77;58.01;102118.69;5008685;28;45400;-80
2021/09/22 08:52:07;;;;;;;;;47.67;39.00;;;;;16.64;57.14;102106.00;5006340;28;44950;-81
2021/09/22 08:54:32;;;;;;;;;46.67;38.00;;;;;16.75;56.92;102129.41;4976254;28;44855;-82
2021/09/22 08:57:03;;;;;;;;;48.00;38.00;;;;;16.68;57.27;102123.94;5009189;28;46847;-81
2021/09/22 08:59:34;;;;;;;;;43.00;33.67;;;;;16.56;57.14;102090.72;5008659;28;45619;-81
2021/09/22 09:02:12;;;;;;;;;49.50;40.25;;;;;16.89;57.27;102124.22;5007801;28;45529;-82
2021/09/22 09:04:42;;;;;;;;;47.00;40.00;;;;;16.90;57.09;102120.63;5008430;28;44909;-82
2021/09/22 09:07:09;;;;;;;;;53.00;43.00;;;;;16.83;56.46;102104.47;5034972;28;46883;-81
2021/09/22 09:10:06;;;;;;;;;50.33;39.33;;;;;16.71;55.71;102081.91;5047806;28;45848;-81
2021/09/22 09:12:35;;;;;;;;;35.00;29.67;;;;;16.84;56.05;102088.31;5051310;28;45489;-80
2021/09/22 09:15:13;;;;;;;;;49.00;41.00;;;;;16.99;55.96;102136.88;5048134;28;45511;-81
2021/09/22 09:17:50;;;;;;;;;52.00;39.00;;;;;17.04;56.37;102136.91;5047713;28;45466;-81
2021/09/22 09:20:41;;;;;;;;;47.33;38.67;;;;;17.00;55.36;102127.91;5064646;28;45419;-82
2021/09/22 09:23:11;;;;;;;;;47.67;38.33;;;;;17.02;55.86;102121.66;5050399;28;45381;-82
2021/09/22 09:26:06;;;;;;;;;50.67;39.67;;;;;17.12;56.09;102131.59;5050268;28;44931;-82
2021/09/22 09:28:38;;;;;;;;;53.33;42.33;;;;;17.05;55.54;102103.78;5049968;28;45239;-80
2021/09/22 09:31:11;;;;;;;;;48.00;41.33;;;;;17.20;55.16;102124.50;5052268;28;45391;-82
2021/09/22 09:33:47;;;;;;;;;53.00;42.00;;;;;17.00;55.21;102079.53;5051748;28;44914;-82
2021/09/22 09:36:28;;;;;;;;;48.67;41.00;;;;;17.29;55.37;102119.22;5082381;28;45924;-81
2021/09/22 09:39:13;;;;;;;;;51.25;40.75;;;;;17.37;55.07;102117.50;5067489;28;47000;-82
2021/09/22 09:48:30;;;;;;;;;44.50;38.50;;;;;17.50;54.21;102109.50;5069280;28;45388;-81
2021/09/22 09:51:00;;;;;;;;;46.67;39.33;;;;;17.49;54.46;102099.63;5087662;27;45476;-80
2021/09/22 09:53:34;;;;;;;;;47.33;39.67;;;;;17.63;54.35;102118.56;5074436;27;45315;-81
2021/09/22 09:56:20;;;;;;;;;49.33;39.33;;;;;17.50;53.49;102085.31;5093631;27;45801;-81
2021/09/22 09:58:56;;;;;;;;;48.67;37.67;;;;;17.57;53.59;102087.13;5113037;27;44855;-81
2021/09/22 10:01:38;;;;;;;;;51.50;40.00;;;;;17.66;53.73;102103.34;5093137;27;47180;-82
2021/09/22 10:04:39;;;;;;;;;41.00;35.67;;;;;17.68;53.38;102104.25;5095287;27;45432;-82
2021/09/22 10:07:10;;;;;;;;;49.00;37.00;;;;;17.58;52.81;102079.06;5112403;27;45526;-82
2021/09/22 10:09:45;;;;;;;;;45.33;37.00;;;;;17.51;52.21;102062.88;5095121;27;45301;-81
2021/09/22 10:12:16;;;;;;;;;47.00;35.67;;;;;17.85;52.25;102098.09;5115146;27;46859;-82
2021/09/22 10:14:45;;;;;;;;;39.67;35.33;;;;;17.70;51.65;102061.22;5114332;27;44863;-81
2021/09/22 10:17:13;;;;;;;;;48.00;38.00;;;;;17.79;52.23;102064.88;5093268;27;44889;-80
2021/09/22 10:22:53;;;;;;;;;37.00;33.33;;;;;18.10;50.70;102078.50;5083174;27;45580;-81
2021/09/22 10:26:15;;;;;;;;;36.00;34.00;;;;;18.21;50.93;102086.63;5093620;27;45471;-81
2021/09/22 10:28:45;;;;;;;;;36.33;32.00;;;;;18.23;49.92;102074.06;5111531;27;44913;-81
2021/09/22 10:31:28;;;;;;;;;35.33;33.00;;;;;18.24;49.30;102074.94;5110134;27;44858;-83
2021/09/22 10:33:58;;;;;;;;;35.00;30.00;;;;;18.26;49.74;102062.38;5090313;28;45067;-80
2021/09/22 10:36:42;;;;;;;;;38.00;33.67;;;;;18.34;49.92;102066.00;5086124;27;45341;-81
2021/09/22 10:39:32;;;;;;;;;36.67;31.33;;;;;18.34;49.32;102049.84;5110267;27;45262;-82
2021/09/22 10:42:30;;;;;;;;;33.33;29.00;;;;;18.41;48.88;102048.09;5101792;27;45472;-82
2021/09/22 10:45:19;;;;;;;;;31.00;28.67;;;;;18.43;49.21;102049.88;5049493;28;45423;-81
2021/09/22 10:47:52;;;;;;;;;31.33;27.33;;;;;18.24;47.44;102002.25;5048762;28;45478;-81
2021/09/22 10:50:47;;;;;;;;;26.33;23.67;;;;;18.48;48.67;102036.41;5025409;28;45536;-82
2021/09/22 10:57:16;;;;;;;;;28.67;24.00;;;;;18.49;45.82;102024.75;4941273;28;45389;-82
2021/09/22 11:00:04;;;;;;;;;26.67;23.67;;;;;18.41;46.67;101997.81;4935273;28;45437;-82
2021/09/22 11:05:57;;;;;;;;;23.33;22.00;;;;;18.56;44.45;102023.84;4945600;28;45544;-82
2021/09/22 11:12:06;;;;;;;;;20.00;20.00;;;;;18.65;45.50;102028.38;4975700;28;44856;-81
2021/09/22 11:14:38;;;;;;;;;22.33;20.33;;;;;18.57;43.80;102015.78;4957748;28;45541;-83
2021/09/22 11:17:24;;;;;;;;;23.67;21.00;;;;;18.67;45.06;102029.28;4969369;28;45388;-82
2021/09/22 11:19:58;;;;;;;;;29.33;23.33;;;;;18.72;45.21;102019.38;4948477;28;47213;-79
2021/09/22 11:22:49;;;;;;;;;20.00;20.00;;;;;18.77;46.09;102007.72;4975534;28;45754;-82
2021/09/22 11:25:19;;;;;;;;;25.67;23.00;;;;;18.73;43.86;102000.53;4987042;28;45943;-80
2021/09/22 11:27:45;;;;;;;;;22.00;21.00;;;;;18.81;44.66;102008.66;4947979;28;45300;-79
2021/09/22 11:30:10;;;;;;;;;17.67;17.33;;;;;18.75;44.35;101995.16;4987045;28;45895;-79
2021/09/22 11:32:47;;;;;;;;;20.00;18.33;;;;;18.88;43.86;102005.03;4987727;28;45409;-78
2021/09/22 11:35:15;;;;;;;;;22.33;22.00;;;;;18.94;45.38;101998.75;4987025;28;45586;-78
2021/09/22 11:38:05;;;;;;;;;19.67;18.33;;;;;18.72;45.13;101955.63;5056671;28;45522;-80
2021/09/22 11:40:38;;;;;;;;;19.00;19.00;;;;;18.76;44.77;101945.72;5068613;28;45412;-79
2021/09/22 11:43:19;;;;;;;;;18.67;16.67;;;;;18.89;45.41;101952.94;5069746;28;44864;-79
2021/09/22 11:45:59;;;;;;;;;20.00;17.33;;;;;18.97;44.57;101951.13;5047575;28;45765;-78
2021/09/22 11:48:26;;;;;;;;;20.33;18.67;;;;;19.20;43.44;101987.94;5047727;28;45559;-78
2021/09/22 11:50:52;;;;;;;;;16.33;14.00;;;;;19.04;44.69;101962.78;5055819;28;45606;-78
2021/09/22 11:53:21;;;;;;;;;15.33;15.33;;;;;19.11;43.92;101969.09;5101436;27;44850;-79